M I D A S
Marine Information and Data Acquisition System
Tripno 1707 of the Zeeleeuw from 2009-06-08 08:01:10 to 2009-06-08 14:49:19
Back to CruiseResearch ActivitiesStationsMapUnderway DataData graphs

EquipmentUnitsComments
TimeDGPSUTC
LatitudeDGPSDM.mWGS84
LongitudeDGPSDM.mWGS84
SpeedMeteo Stationm/sRelative wind speed
DirectionMeteo StationdegRelative wind direction
TemperatureMeteo Stationdeg CelciusAir temperature
PressureMeteo StationPaAtmospheric pressure
HumidityMeteo Station%Relative humidity
Missing or incorrect values are displayed as -999
Metereological data collected by the RV Zeeleeuw from 2009-06-08 07:07:44 to 2009-06-08 14:58:17
Time Latitude Longitude Speed Direction Temperature Pressure Humidity
2009-06-08 07:08 51°13.662 2°55.962 2.9 5 12 100730 89
2009-06-08 07:09 51°13.662 2°55.962 2.4 7 12 100740 86
2009-06-08 07:10 51°13.662 2°55.961 2.2 -999 11.9 100730 86
2009-06-08 07:11 51°13.662 2°55.961 5 16 11.8 100730 85
2009-06-08 07:12 51°13.662 2°55.961 2.9 27 11.8 100730 85
2009-06-08 07:13 51°13.661 2°55.961 3.1 6 11.8 100730 86
2009-06-08 07:14 51°13.661 2°55.961 3.1 3 11.9 100740 85
2009-06-08 07:15 51°13.661 2°55.961 2.6 27 11.9 100740 84
2009-06-08 07:16 51°13.661 2°55.961 2.1 23 12 100740 84
2009-06-08 07:17 51°13.662 2°55.961 1.6 23 12.1 100740 85
2009-06-08 07:18 51°13.662 2°55.962 3.2 33 12.2 100740 83
2009-06-08 07:19 51°13.662 2°55.962 2.6 3 12.2 100740 82
2009-06-08 07:20 51°13.661 2°55.96 2.9 27 12.2 100740 82
2009-06-08 07:21 51°13.661 2°55.961 3.3 36 12.2 100740 82
2009-06-08 07:22 51°13.662 2°55.963 2.7 22 12.2 100740 82
2009-06-08 07:23 51°13.662 2°55.963 1.5 51 12.3 100740 82
2009-06-08 07:24 51°13.662 2°55.961 1.6 37 12.3 100730 82
2009-06-08 07:25 51°13.662 2°55.961 3.6 37 12.4 100740 83
2009-06-08 07:26 51°13.661 2°55.961 4.8 19 12.3 100740 79
2009-06-08 07:27 51°13.661 2°55.961 3.8 35 12.3 100740 80
2009-06-08 07:28 51°13.662 2°55.961 1.8 32 12.3 100750 79
2009-06-08 07:29 51°13.662 2°55.961 3 14 12.3 100740 79
2009-06-08 07:30 51°13.664 2°55.964 2.3 21 12.4 100740 79
2009-06-08 07:31 51°13.662 2°55.961 2 14 12.5 100740 80
2009-06-08 07:32 51°13.659 2°55.959 3.3 21 12.6 100740 78
2009-06-08 07:33 51°13.66 2°55.96 2.5 8 12.6 100740 77
2009-06-08 07:34 51°13.661 2°55.961 2.3 32 12.5 100740 77
2009-06-08 07:35 51°13.662 2°55.962 2.8 10 12.5 100750 76
2009-06-08 07:36 51°13.663 2°55.963 1.7 15 12.5 100750 76
2009-06-08 07:37 51°13.663 2°55.963 5 19 12.5 100750 77
2009-06-08 07:38 51°13.663 2°55.963 2.8 16 12.4 100740 76
2009-06-08 07:39 51°13.663 2°55.962 4.6 9 12.4 100750 76
2009-06-08 07:40 51°13.662 2°55.962 2.1 7 12.3 100740 76
2009-06-08 07:41 51°13.663 2°55.963 3.3 24 12.4 100740 77
2009-06-08 07:42 51°13.664 2°55.964 2.2 17 12.4 100740 77
2009-06-08 07:43 51°13.664 2°55.964 1.8 28 12.4 100740 77
2009-06-08 07:44 51°13.664 2°55.964 3.3 38 12.5 100740 77
2009-06-08 07:45 51°13.662 2°55.961 2.7 20 12.5 100740 77
2009-06-08 07:46 51°13.662 2°55.961 1.2 19 12.5 100740 76
2009-06-08 07:47 51°13.662 2°55.961 2 31 12.5 100730 77
2009-06-08 07:48 51°13.661 2°55.961 3.9 28 12.6 100730 77
2009-06-08 07:49 51°13.663 2°55.962 3 23 12.7 100730 77
2009-06-08 07:50 51°13.661 2°55.962 1.5 355 12.7 100740 76
2009-06-08 07:51 51°13.662 2°55.963 0.8 26 12.7 100740 76
2009-06-08 07:52 51°13.66 2°55.962 4 27 12.7 100740 74
2009-06-08 07:53 51°13.66 2°55.962 2.7 37 12.7 100730 73
2009-06-08 07:54 51°13.66 2°55.961 2.9 32 12.7 100730 73
2009-06-08 07:55 51°13.66 2°55.961 4.8 39 12.8 100740 71
2009-06-08 07:56 51°13.659 2°55.961 3.5 19 12.8 100730 71
2009-06-08 07:57 51°13.659 2°55.96 2.3 40 12.8 100730 71
2009-06-08 07:58 51°13.66 2°55.961 2.4 30 12.8 100730 72
2009-06-08 07:59 51°13.66 2°55.962 3.5 29 12.8 100730 70
2009-06-08 08:00 51°13.659 2°55.962 3.4 39 12.8 100730 70
2009-06-08 08:01 51°13.672 2°55.923 4.3 43 12.8 100720 70
2009-06-08 08:02 51°13.69 2°55.839 5 79 12.8 100730 70
2009-06-08 08:03 51°13.698 2°55.763 1.7 78 12.8 100730 70
2009-06-08 08:04 51°13.701 2°55.742 1.5 80 12.8 100730 71
2009-06-08 08:05 51°13.709 2°55.745 3.1 75 12.9 100720 72
2009-06-08 08:06 51°13.703 2°55.739 4.1 75 12.9 100730 72
2009-06-08 08:07 51°13.765 2°55.684 2.7 286 13 100730 70
2009-06-08 08:08 51°13.874 2°55.597 5 303 13.1 100710 69
2009-06-08 08:09 51°14 2°55.504 4.3 281 13.2 100720 68
2009-06-08 08:10 51°14.126 2°55.415 6.5 284 13.2 100720 67
2009-06-08 08:11 51°14.244 2°55.297 6.3 303 13.3 100720 69
2009-06-08 08:12 51°14.357 2°55.123 8 280 13.2 100710 70
2009-06-08 08:13 51°14.453 2°54.889 8.5 279 13 100710 68
2009-06-08 08:14 51°14.57 2°54.649 8.1 303 12.9 100700 68
2009-06-08 08:15 51°14.724 2°54.481 6.8 303 12.8 100720 69
2009-06-08 08:16 51°14.889 2°54.321 7.6 282 12.8 100720 71
2009-06-08 08:17 51°15.042 2°54.15 9.5 281 12.7 100720 72
2009-06-08 08:18 51°15.194 2°53.978 8.2 280 12.7 100730 72
2009-06-08 08:19 51°15.348 2°53.815 7.1 284 12.7 100720 74
2009-06-08 08:20 51°15.509 2°53.656 6.2 310 12.7 100730 74
2009-06-08 08:21 51°15.675 2°53.498 7 305 12.7 100730 75
2009-06-08 08:22 51°15.839 2°53.341 6.9 279 12.7 100720 73
2009-06-08 08:23 51°16.003 2°53.181 8.2 306 12.6 100730 72
2009-06-08 08:24 51°16.164 2°53.025 5 306 12.6 100720 71
2009-06-08 08:25 51°16.338 2°52.897 6.2 305 12.7 100720 72
2009-06-08 08:26 51°16.51 2°52.793 6.8 303 12.8 100720 73
2009-06-08 08:27 51°16.686 2°52.697 6.1 309 12.8 100720 70
2009-06-08 08:28 51°16.861 2°52.598 5.8 280 12.8 100720 72
2009-06-08 08:29 51°17.033 2°52.536 5.3 306 12.9 100730 72
2009-06-08 08:30 51°17.211 2°52.503 4.8 306 12.8 100720 73
2009-06-08 08:31 51°17.385 2°52.514 3.4 285 12.9 100720 73
2009-06-08 08:32 51°17.534 2°52.645 1.3 332 12.9 100720 73
2009-06-08 08:33 51°17.644 2°52.849 1.1 335 13 100720 72
2009-06-08 08:34 51°17.738 2°53.084 2.5 348 13 100720 72
2009-06-08 08:35 51°17.784 2°53.353 2.4 348 13 100720 70
2009-06-08 08:36 51°17.831 2°53.618 3.5 353 12.9 100710 70
2009-06-08 08:37 51°17.89 2°53.886 3.2 351 12.9 100720 70
2009-06-08 08:38 51°17.959 2°54.135 2.7 343 12.7 100720 70
2009-06-08 08:39 51°18.06 2°54.364 2.3 334 12.7 100720 70
2009-06-08 08:40 51°18.167 2°54.577 1.5 280 12.7 100720 68
2009-06-08 08:41 51°18.279 2°54.788 1.3 325 12.8 100720 68
2009-06-08 08:42 51°18.393 2°54.997 2.3 325 13 100720 69
2009-06-08 08:43 51°18.507 2°55.206 2.7 302 13.3 100720 69
2009-06-08 08:44 51°18.62 2°55.422 2.4 337 13.5 100720 70
2009-06-08 08:45 51°18.733 2°55.626 2.3 325 13.6 100710 70
2009-06-08 08:46 51°18.846 2°55.836 2.5 343 13.6 100720 70
2009-06-08 08:47 51°18.958 2°56.046 2.3 342 13.5 100710 68
2009-06-08 08:48 51°19.07 2°56.254 1.6 345 13.4 100720 69
2009-06-08 08:49 51°19.186 2°56.463 1.5 285 13.3 100710 70
2009-06-08 08:50 51°19.299 2°56.66 1.9 338 13.2 100710 70
2009-06-08 08:51 51°19.414 2°56.864 1.7 278 13.2 100710 70
2009-06-08 08:52 51°19.523 2°57.074 2.3 357 13.4 100720 72
2009-06-08 08:53 51°19.635 2°57.279 2.7 346 13.3 100710 68
2009-06-08 08:54 51°19.746 2°57.485 2.7 279 13.1 100720 70
2009-06-08 08:55 51°19.86 2°57.692 3.1 280 13.1 100710 71
2009-06-08 08:56 51°19.973 2°57.89 2.3 285 13.1 100710 71
2009-06-08 08:57 51°20.09 2°58.096 1.7 351 13 100720 72
2009-06-08 08:58 51°20.202 2°58.293 1.7 280 13 100710 70
2009-06-08 08:59 51°20.316 2°58.504 2.3 354 13 100710 70
2009-06-08 09:00 51°20.428 2°58.705 1.7 281 13 100710 71
2009-06-08 09:01 51°20.544 2°58.914 2.4 279 13 100710 71
2009-06-08 09:02 51°20.66 2°59.118 2.7 280 13.1 100710 72
2009-06-08 09:03 51°20.775 2°59.327 2.7 351 13 100710 71
2009-06-08 09:04 51°20.89 2°59.537 3 352 13 100710 71
2009-06-08 09:05 51°21.007 2°59.747 2.5 281 13 100710 71
2009-06-08 09:06 51°21.123 2°59.961 2.8 283 13 100710 70
2009-06-08 09:07 51°21.237 3°0.179 2.2 278 13 100710 71
2009-06-08 09:08 51°21.353 3°0.395 1.3 343 13.1 100720 70
2009-06-08 09:09 51°21.466 3°0.61 2.1 348 13.1 100720 70
2009-06-08 09:10 51°21.586 3°0.817 0.9 358 13.3 100720 72
2009-06-08 09:11 51°21.71 3°1.016 1.9 355 13.4 100720 69
2009-06-08 09:12 51°21.835 3°1.212 2.3 356 13.4 100720 68
2009-06-08 09:13 51°21.956 3°1.414 2.2 3 13.4 100720 67
2009-06-08 09:14 51°22.079 3°1.615 1.9 350 13.3 100720 67
2009-06-08 09:15 51°22.201 3°1.819 1.7 359 13.3 100730 68
2009-06-08 09:16 51°22.326 3°2.024 2.2 357 13.4 100730 68
2009-06-08 09:17 51°22.447 3°2.226 2.7 279 13.3 100720 67
2009-06-08 09:18 51°22.568 3°2.43 2.4 358 13.3 100730 68
2009-06-08 09:19 51°22.669 3°2.601 2.1 37 13.2 100740 67
2009-06-08 09:20 51°22.724 3°2.694 2.9 83 13.2 100730 68
2009-06-08 09:21 51°22.766 3°2.763 3 82 13.2 100720 66
2009-06-08 09:22 51°22.795 3°2.809 3.2 77 13.2 100730 66
2009-06-08 09:23 51°22.815 3°2.839 3.1 80 13.1 100730 68
2009-06-08 09:24 51°22.83 3°2.861 2.1 80 13.2 100720 69
2009-06-08 09:25 51°22.842 3°2.878 2.7 82 13.4 100730 65
2009-06-08 09:26 51°22.852 3°2.89 3.5 80 13.4 100730 63
2009-06-08 09:27 51°22.857 3°2.897 4.1 80 13.3 100730 64
2009-06-08 09:28 51°22.858 3°2.899 3.7 80 13.4 100730 66
2009-06-08 09:29 51°22.857 3°2.899 4.1 79 13.3 100730 64
2009-06-08 09:30 51°22.854 3°2.898 4.6 75 13.1 100730 62
2009-06-08 09:31 51°22.85 3°2.894 4.3 74 13.1 100730 65
2009-06-08 09:32 51°22.844 3°2.893 4.1 79 13.1 100730 64
2009-06-08 09:33 51°22.837 3°2.888 4.2 81 13.1 100730 65
2009-06-08 09:34 51°22.83 3°2.884 4 57 13.2 100730 67
2009-06-08 09:35 51°22.823 3°2.878 3.6 75 13.4 100730 68
2009-06-08 09:36 51°22.816 3°2.873 4.7 75 13.3 100730 65
2009-06-08 09:37 51°22.809 3°2.868 4.8 74 13.3 100720 64
2009-06-08 09:38 51°22.801 3°2.862 4.1 75 13.3 100720 63
2009-06-08 09:39 51°22.792 3°2.856 4.3 74 13.4 100720 62
2009-06-08 09:40 51°22.782 3°2.851 3.2 285 13.4 100720 62
2009-06-08 09:41 51°22.772 3°2.847 4.1 285 13.5 100720 62
2009-06-08 09:42 51°22.763 3°2.843 3.7 76 13.5 100720 63
2009-06-08 09:43 51°22.754 3°2.84 3.7 286 13.6 100730 64
2009-06-08 09:44 51°22.744 3°2.839 4 284 13.6 100720 66
2009-06-08 09:45 51°22.733 3°2.838 4 280 13.8 100730 67
2009-06-08 09:46 51°22.722 3°2.838 4.5 281 13.8 100720 66
2009-06-08 09:47 51°22.71 3°2.838 3.4 280 13.8 100720 63
2009-06-08 09:48 51°22.699 3°2.84 2.5 284 13.7 100720 62
2009-06-08 09:49 51°22.699 3°2.835 4 83 13.7 100720 63
2009-06-08 09:50 51°22.683 3°2.834 3.7 53 13.7 100720 61
2009-06-08 09:51 51°22.668 3°2.834 3.3 76 13.6 100720 61
2009-06-08 09:52 51°22.654 3°2.835 3.6 75 13.7 100720 62
2009-06-08 09:53 51°22.641 3°2.835 2.8 81 13.6 100720 61
2009-06-08 09:54 51°22.628 3°2.836 3.3 81 13.5 100720 60
2009-06-08 09:55 51°22.616 3°2.837 3.4 80 13.5 100720 62
2009-06-08 09:56 51°22.604 3°2.839 3.7 81 13.4 100720 60
2009-06-08 09:57 51°22.593 3°2.841 3 82 13.3 100720 62
2009-06-08 09:58 51°22.583 3°2.843 3.2 82 13.3 100720 63
2009-06-08 09:59 51°22.585 3°2.85 2.4 77 13.5 100710 65
2009-06-08 10:00 51°22.604 3°2.859 2 282 13.5 100720 64
2009-06-08 10:01 51°22.628 3°2.865 2.2 287 13.6 100720 63
2009-06-08 10:02 51°22.641 3°2.866 2.5 79 13.7 100720 63
2009-06-08 10:03 51°22.65 3°2.866 2.9 283 13.8 100720 65
2009-06-08 10:04 51°22.654 3°2.865 3 285 13.9 100720 64
2009-06-08 10:05 51°22.656 3°2.864 4 277 13.8 100720 62
2009-06-08 10:06 51°22.655 3°2.864 2.4 278 13.8 100720 61
2009-06-08 10:07 51°22.654 3°2.864 2.3 280 13.8 100720 61
2009-06-08 10:08 51°22.653 3°2.864 3.4 283 13.9 100730 62
2009-06-08 10:09 51°22.65 3°2.863 2.5 279 13.9 100730 61
2009-06-08 10:10 51°22.647 3°2.864 2.2 279 13.9 100730 61
2009-06-08 10:11 51°22.643 3°2.865 2.7 287 13.9 100730 60
2009-06-08 10:12 51°22.639 3°2.867 3.1 284 14 100730 60
2009-06-08 10:13 51°22.635 3°2.87 2.3 280 14.1 100730 60
2009-06-08 10:14 51°22.63 3°2.873 2.3 285 14.2 100730 60
2009-06-08 10:15 51°22.625 3°2.876 2.7 284 14.3 100730 60
2009-06-08 10:16 51°22.62 3°2.879 1.9 277 14.4 100730 60
2009-06-08 10:17 51°22.615 3°2.882 2.6 280 14.5 100730 59
2009-06-08 10:18 51°22.61 3°2.886 3.4 284 14.6 100740 60
2009-06-08 10:19 51°22.605 3°2.891 3 278 14.6 100740 58
2009-06-08 10:20 51°22.6 3°2.898 2.6 286 14.5 100730 58
2009-06-08 10:21 51°22.596 3°2.905 2.6 278 14.5 100730 58
2009-06-08 10:22 51°22.591 3°2.912 2.3 282 14.5 100730 58
2009-06-08 10:23 51°22.587 3°2.919 1.8 280 14.6 100730 59
2009-06-08 10:24 51°22.582 3°2.927 1.9 280 14.7 100730 59
2009-06-08 10:25 51°22.577 3°2.936 3 277 14.8 100730 59
2009-06-08 10:26 51°22.573 3°2.946 4.5 279 14.9 100730 58
2009-06-08 10:27 51°22.568 3°2.957 3.8 279 14.9 100730 56
2009-06-08 10:28 51°22.563 3°2.968 3.2 286 14.9 100730 54
2009-06-08 10:29 51°22.558 3°2.98 2.7 280 14.9 100730 54
2009-06-08 10:30 51°22.554 3°2.991 2.5 279 15 100730 54
2009-06-08 10:31 51°22.549 3°3.005 2.2 283 15 100720 54
2009-06-08 10:32 51°22.545 3°3.018 1.6 282 15.1 100730 54
2009-06-08 10:33 51°22.544 3°3.029 2.8 279 15.1 100730 54
2009-06-08 10:34 51°22.56 3°3.026 2 284 15.2 100720 54
2009-06-08 10:35 51°22.589 3°3.003 4.1 285 15.2 100740 54
2009-06-08 10:36 51°22.623 3°2.966 4.1 280 15.2 100730 53
2009-06-08 10:37 51°22.65 3°2.927 3.2 281 15.1 100730 53
2009-06-08 10:38 51°22.675 3°2.892 2.6 278 15 100740 54
2009-06-08 10:39 51°22.691 3°2.861 3.1 282 15 100730 54
2009-06-08 10:40 51°22.705 3°2.84 3 286 14.9 100730 55
2009-06-08 10:41 51°22.712 3°2.833 2.4 280 14.8 100730 55
2009-06-08 10:42 51°22.719 3°2.831 2.8 280 14.8 100730 55
2009-06-08 10:43 51°22.721 3°2.834 3.3 280 14.9 100730 56
2009-06-08 10:44 51°22.722 3°2.841 2.2 284 14.9 100730 55
2009-06-08 10:45 51°22.72 3°2.85 2.3 283 14.9 100730 55
2009-06-08 10:46 51°22.717 3°2.864 2.1 280 14.9 100730 55
2009-06-08 10:47 51°22.712 3°2.878 1.3 285 14.9 100730 54
2009-06-08 10:48 51°22.706 3°2.895 0.9 277 14.9 100730 54
2009-06-08 10:49 51°22.701 3°2.915 1.1 281 15 100730 54
2009-06-08 10:50 51°22.694 3°2.937 1.3 277 15 100740 54
2009-06-08 10:51 51°22.687 3°2.962 1.8 310 15.1 100730 54
2009-06-08 10:52 51°22.68 3°2.988 1.6 310 15.2 100730 54
2009-06-08 10:53 51°22.673 3°3.016 1.5 300 15.3 100730 54
2009-06-08 10:54 51°22.666 3°3.043 2.1 301 15.3 100730 54
2009-06-08 10:55 51°22.66 3°3.071 1.1 302 15.4 100740 53
2009-06-08 10:56 51°22.651 3°3.1 0.7 302 15.4 100730 53
2009-06-08 10:57 51°22.644 3°3.129 0.4 308 15.4 100730 53
2009-06-08 10:58 51°22.635 3°3.162 0.8 308 15.4 100730 53
2009-06-08 10:59 51°22.626 3°3.194 1.1 302 15.6 100740 54
2009-06-08 11:00 51°22.619 3°3.225 1.3 307 15.6 100730 53
2009-06-08 11:01 51°22.61 3°3.256 2 50 15.6 100740 53
2009-06-08 11:02 51°22.602 3°3.287 1.5 55 15.3 100730 53
2009-06-08 11:03 51°22.595 3°3.318 0.9 52 15.1 100730 54
2009-06-08 11:04 51°22.587 3°3.349 1.3 50 15 100740 54
2009-06-08 11:05 51°22.58 3°3.381 0.9 58 15 100740 54
2009-06-08 11:06 51°22.577 3°3.42 0.9 310 14.9 100740 55
2009-06-08 11:07 51°22.583 3°3.462 2 301 14.9 100730 55
2009-06-08 11:08 51°22.596 3°3.493 2.5 301 15 100730 55
2009-06-08 11:09 51°22.608 3°3.511 1.6 303 15.1 100740 55
2009-06-08 11:10 51°22.614 3°3.514 1.6 339 15 100730 54
2009-06-08 11:11 51°22.617 3°3.506 1.3 328 14.9 100730 54
2009-06-08 11:12 51°22.623 3°3.491 1.8 339 14.8 100730 56
2009-06-08 11:13 51°22.633 3°3.473 1.7 339 14.7 100740 55
2009-06-08 11:14 51°22.643 3°3.453 2.1 331 14.8 100740 56
2009-06-08 11:15 51°22.652 3°3.432 2.1 327 14.9 100740 56
2009-06-08 11:16 51°22.662 3°3.411 1.9 332 15 100730 55
2009-06-08 11:17 51°22.674 3°3.349 3.4 326 15 100730 54
2009-06-08 11:18 51°22.673 3°3.203 4.4 333 14.7 100730 55
2009-06-08 11:19 51°22.694 3°3.03 5.5 337 14.6 100720 56
2009-06-08 11:20 51°22.722 3°2.879 3.7 339 14.5 100720 57
2009-06-08 11:21 51°22.688 3°2.838 1.4 349 14.4 100730 58
2009-06-08 11:22 51°22.667 3°2.863 0.6 6 14.3 100730 59
2009-06-08 11:23 51°22.66 3°2.902 1 37 14.3 100730 59
2009-06-08 11:24 51°22.653 3°2.944 0.8 52 14.4 100730 59
2009-06-08 11:25 51°22.645 3°2.991 0.7 39 14.4 100730 58
2009-06-08 11:26 51°22.62 3°3.025 1.1 12 14.5 100720 58
2009-06-08 11:27 51°22.6 3°3.022 1.9 346 14.5 100730 58
2009-06-08 11:28 51°22.598 3°3.006 1.7 344 14.3 100720 58
2009-06-08 11:29 51°22.598 3°2.998 2 349 14.3 100720 59
2009-06-08 11:30 51°22.597 3°3.001 1.2 352 14.2 100730 59
2009-06-08 11:31 51°22.597 3°3.014 2.5 345 14.1 100730 59
2009-06-08 11:32 51°22.599 3°3.03 1.7 343 14.1 100730 59
2009-06-08 11:33 51°22.602 3°3.046 1.5 354 14 100730 59
2009-06-08 11:34 51°22.601 3°3.09 0.8 354 14 100720 60
2009-06-08 11:35 51°22.599 3°3.15 0.9 7 14 100730 60
2009-06-08 11:36 51°22.599 3°3.206 1 -999 14.1 100720 60
2009-06-08 11:37 51°22.602 3°3.247 1.6 7 14.2 100720 60
2009-06-08 11:38 51°22.605 3°3.266 1.8 356 14.1 100720 60
2009-06-08 11:39 51°22.608 3°3.247 2.6 342 14 100720 61
2009-06-08 11:40 51°22.611 3°3.223 2.2 347 14 100720 61
2009-06-08 11:41 51°22.614 3°3.207 1.9 347 13.9 100710 61
2009-06-08 11:42 51°22.616 3°3.201 2.2 358 13.9 100720 61
2009-06-08 11:43 51°22.617 3°3.205 1.4 1 13.8 100710 61
2009-06-08 11:44 51°22.619 3°3.215 2.5 2 13.8 100710 62
2009-06-08 11:45 51°22.618 3°3.231 2 4 13.9 100710 62
2009-06-08 11:46 51°22.618 3°3.254 2.1 3 13.8 100710 61
2009-06-08 11:47 51°22.618 3°3.281 1.3 2 13.8 100700 62
2009-06-08 11:48 51°22.618 3°3.312 1.8 4 13.8 100710 63
2009-06-08 11:49 51°22.619 3°3.346 1.4 5 13.8 100700 63
2009-06-08 11:50 51°22.62 3°3.379 1.9 12 13.9 100710 63
2009-06-08 11:51 51°22.621 3°3.396 1.7 5 13.9 100710 62
2009-06-08 11:52 51°22.623 3°3.401 1.6 -999 13.9 100710 61
2009-06-08 11:53 51°22.627 3°3.395 2.3 5 13.8 100710 62
2009-06-08 11:54 51°22.629 3°3.378 2.9 351 13.8 100710 62
2009-06-08 11:55 51°22.631 3°3.355 2.4 358 13.8 100710 63
2009-06-08 11:56 51°22.628 3°3.329 2.1 355 13.8 100710 62
2009-06-08 11:57 51°22.625 3°3.301 2.2 359 13.7 100710 62
2009-06-08 11:58 51°22.622 3°3.271 2.1 3 13.7 100710 63
2009-06-08 11:59 51°22.618 3°3.245 2.6 359 13.7 100710 63
2009-06-08 12:00 51°22.617 3°3.237 2.2 5 13.8 100710 63
2009-06-08 12:01 51°22.616 3°3.243 2.4 9 13.7 100710 62
2009-06-08 12:02 51°22.615 3°3.26 2.1 7 13.7 100710 62
2009-06-08 12:03 51°22.616 3°3.284 1.6 21 13.7 100710 63
2009-06-08 12:04 51°22.618 3°3.313 1.7 19 13.8 100700 62
2009-06-08 12:05 51°22.621 3°3.348 1.9 26 13.9 100710 62
2009-06-08 12:06 51°22.624 3°3.386 2.4 21 13.9 100710 62
2009-06-08 12:07 51°22.629 3°3.426 2.6 22 14 100710 62
2009-06-08 12:08 51°22.634 3°3.468 1.7 29 14.1 100710 62
2009-06-08 12:09 51°22.641 3°3.471 2.6 356 14.1 100710 62
2009-06-08 12:10 51°22.638 3°3.405 2.7 352 14.1 100710 61
2009-06-08 12:11 51°22.626 3°3.314 2.8 354 13.9 100710 61
2009-06-08 12:12 51°22.62 3°3.24 2.1 360 13.8 100710 62
2009-06-08 12:13 51°22.624 3°3.21 2.8 3 13.8 100710 62
2009-06-08 12:14 51°22.636 3°3.206 1.9 10 13.8 100710 62
2009-06-08 12:15 51°22.649 3°3.216 2.9 8 13.9 100710 63
2009-06-08 12:16 51°22.662 3°3.237 2.3 7 13.9 100700 63
2009-06-08 12:17 51°22.674 3°3.264 2.6 3 14 100710 63
2009-06-08 12:18 51°22.686 3°3.298 3 354 13.9 100700 63
2009-06-08 12:19 51°22.698 3°3.336 2.8 356 13.9 100700 63
2009-06-08 12:20 51°22.708 3°3.377 2.1 2 13.8 100700 64
2009-06-08 12:21 51°22.716 3°3.419 2.8 3 13.9 100700 65
2009-06-08 12:22 51°22.726 3°3.437 2.4 28 13.8 100700 65
2009-06-08 12:23 51°22.716 3°3.421 2 14 13.8 100700 64
2009-06-08 12:24 51°22.695 3°3.371 3.1 6 13.8 100700 63
2009-06-08 12:25 51°22.676 3°3.318 3.3 10 13.9 100700 64
2009-06-08 12:26 51°22.666 3°3.277 4.2 9 13.9 100690 62
2009-06-08 12:27 51°22.662 3°3.253 3.4 13 13.8 100690 63
2009-06-08 12:28 51°22.658 3°3.25 2.7 27 13.9 100690 63
2009-06-08 12:29 51°22.654 3°3.259 3.3 26 13.9 100690 64
2009-06-08 12:30 51°22.652 3°3.276 3.3 28 13.9 100690 63
2009-06-08 12:31 51°22.653 3°3.299 3 27 14 100700 63
2009-06-08 12:32 51°22.652 3°3.307 2.5 17 13.9 100700 63
2009-06-08 12:33 51°22.644 3°3.261 3 15 14 100700 63
2009-06-08 12:34 51°22.636 3°3.207 2.9 24 14 100700 63
2009-06-08 12:35 51°22.632 3°3.181 3.2 21 14 100700 63
2009-06-08 12:36 51°22.634 3°3.17 3.5 20 14 100700 64
2009-06-08 12:37 51°22.64 3°3.17 3.3 23 14 100700 63
2009-06-08 12:38 51°22.65 3°3.179 4.3 20 14 100700 65
2009-06-08 12:39 51°22.661 3°3.193 4 19 14 100690 63
2009-06-08 12:40 51°22.673 3°3.216 3.5 13 14 100690 63
2009-06-08 12:41 51°22.685 3°3.243 3.7 18 14 100690 65
2009-06-08 12:42 51°22.696 3°3.273 3 16 14 100690 63
2009-06-08 12:43 51°22.706 3°3.304 3.3 19 14 100690 63
2009-06-08 12:44 51°22.714 3°3.339 4.5 19 14 100690 64
2009-06-08 12:45 51°22.717 3°3.385 3.5 23 14 100690 63
2009-06-08 12:46 51°22.722 3°3.407 3.2 32 13.9 100690 63
2009-06-08 12:47 51°22.718 3°3.407 3.1 33 14 100690 64
2009-06-08 12:48 51°22.709 3°3.391 2.9 30 13.9 100690 63
2009-06-08 12:49 51°22.699 3°3.365 2.8 29 14 100690 63
2009-06-08 12:50 51°22.688 3°3.333 3.5 28 14 100690 64
2009-06-08 12:51 51°22.676 3°3.3 3.2 36 14 100700 64
2009-06-08 12:52 51°22.658 3°3.272 2.7 32 14 100700 64
2009-06-08 12:53 51°22.647 3°3.239 2.9 29 14 100690 64
2009-06-08 12:54 51°22.638 3°3.203 3.4 25 14 100690 64
2009-06-08 12:55 51°22.637 3°3.179 3.5 25 14 100690 63
2009-06-08 12:56 51°22.643 3°3.169 4 23 14.1 100690 65
2009-06-08 12:57 51°22.654 3°3.171 4.2 19 14 100690 63
2009-06-08 12:58 51°22.666 3°3.182 4.6 12 14 100690 63
2009-06-08 12:59 51°22.677 3°3.199 3.9 8 14 100690 63
2009-06-08 13:00 51°22.688 3°3.22 4.4 9 13.9 100690 64
2009-06-08 13:01 51°22.698 3°3.243 3.9 8 13.9 100680 63
2009-06-08 13:02 51°22.706 3°3.27 4.3 9 14 100690 65
2009-06-08 13:03 51°22.714 3°3.298 5.3 8 13.9 100690 64
2009-06-08 13:04 51°22.72 3°3.327 4.5 18 13.9 100690 65
2009-06-08 13:05 51°22.726 3°3.354 3.9 23 14 100680 65
2009-06-08 13:06 51°22.733 3°3.354 3.2 33 13.9 100690 63
2009-06-08 13:07 51°22.719 3°3.332 2.9 41 14 100690 63
2009-06-08 13:08 51°22.696 3°3.294 2.4 38 14 100690 63
2009-06-08 13:09 51°22.67 3°3.248 1.9 33 14 100690 64
2009-06-08 13:10 51°22.645 3°3.204 2.9 33 14.1 100690 65
2009-06-08 13:11 51°22.636 3°3.177 3.7 33 14.2 100690 64
2009-06-08 13:12 51°22.635 3°3.164 3.9 32 14.1 100690 63
2009-06-08 13:13 51°22.641 3°3.162 3.9 27 14.1 100690 63
2009-06-08 13:14 51°22.65 3°3.17 5 22 14.1 100690 64
2009-06-08 13:15 51°22.66 3°3.183 4.3 18 14 100690 63
2009-06-08 13:16 51°22.671 3°3.2 4.7 21 14.1 100680 64
2009-06-08 13:17 51°22.681 3°3.221 5.2 17 14.1 100690 65
2009-06-08 13:18 51°22.689 3°3.242 5.4 17 14 100680 63
2009-06-08 13:19 51°22.697 3°3.263 4.8 17 14 100680 64
2009-06-08 13:20 51°22.704 3°3.287 5.4 11 14 100690 63
2009-06-08 13:21 51°22.709 3°3.312 5.2 13 13.9 100680 63
2009-06-08 13:22 51°22.714 3°3.339 5 18 14 100680 64
2009-06-08 13:23 51°22.721 3°3.339 3.9 32 13.9 100680 63
2009-06-08 13:24 51°22.71 3°3.321 3.3 52 14 100690 65
2009-06-08 13:25 51°22.69 3°3.287 3.4 40 14 100680 66
2009-06-08 13:26 51°22.667 3°3.241 4 40 14.1 100690 65
2009-06-08 13:27 51°22.648 3°3.197 4.1 42 13.9 100690 63
2009-06-08 13:28 51°22.637 3°3.172 4 40 13.9 100680 66
2009-06-08 13:29 51°22.632 3°3.159 5.5 40 14 100680 66
2009-06-08 13:30 51°22.634 3°3.168 4.7 36 13.9 100680 64
2009-06-08 13:31 51°22.63 3°3.153 3.7 38 13.8 100680 65
2009-06-08 13:32 51°22.623 3°3.128 3.7 38 13.9 100680 66
2009-06-08 13:33 51°22.614 3°3.096 4.6 37 14 100680 66
2009-06-08 13:34 51°22.602 3°3.056 3.9 51 13.9 100680 65
2009-06-08 13:35 51°22.588 3°3.029 5.2 54 13.9 100680 66
2009-06-08 13:36 51°22.584 3°3.018 4.7 44 13.9 100680 66
2009-06-08 13:37 51°22.587 3°3.018 4 39 13.9 100680 66
2009-06-08 13:38 51°22.592 3°3.024 4.9 29 13.9 100680 66
2009-06-08 13:39 51°22.6 3°3.032 4.4 24 13.9 100680 65
2009-06-08 13:40 51°22.597 3°3 3.2 56 14 100670 65
2009-06-08 13:41 51°22.561 3°2.938 3.1 52 14 100680 65
2009-06-08 13:42 51°22.517 3°2.854 3.1 56 14 100680 63
2009-06-08 13:43 51°22.47 3°2.763 2.9 52 13.9 100680 64
2009-06-08 13:44 51°22.416 3°2.656 2.2 36 13.9 100680 64
2009-06-08 13:45 51°22.334 3°2.49 1.3 28 14 100680 64
2009-06-08 13:46 51°22.236 3°2.291 1.2 13 14 100680 63
2009-06-08 13:47 51°22.132 3°2.075 0.6 4 14 100680 64
2009-06-08 13:48 51°22.026 3°1.861 1.2 351 14.2 100680 65
2009-06-08 13:49 51°21.92 3°1.647 2.3 9 14.2 100680 65
2009-06-08 13:50 51°21.812 3°1.435 2.8 9 14.1 100680 66
2009-06-08 13:51 51°21.707 3°1.216 2.7 3 14.1 100680 65
2009-06-08 13:52 51°21.601 3°0.997 2.4 -999 14.1 100670 65
2009-06-08 13:53 51°21.493 3°0.783 1.8 2 14.1 100680 66
2009-06-08 13:54 51°21.387 3°0.568 1.3 356 14 100680 65
2009-06-08 13:55 51°21.282 3°0.349 1.7 356 14 100680 65
2009-06-08 13:56 51°21.175 3°0.132 1.9 1 14.1 100680 66
2009-06-08 13:57 51°21.069 2°59.914 2.1 12 14.1 100680 66
2009-06-08 13:58 51°20.965 2°59.69 2.4 7 14.1 100670 66
2009-06-08 13:59 51°20.859 2°59.473 1.4 8 14.2 100680 66
2009-06-08 14:00 51°20.754 2°59.258 2.1 9 14.1 100680 65
2009-06-08 14:01 51°20.649 2°59.044 1.3 -999 14 100680 64
2009-06-08 14:02 51°20.547 2°58.827 1.2 359 14 100680 65
2009-06-08 14:03 51°20.442 2°58.611 0.8 7 14.1 100680 66
2009-06-08 14:04 51°20.339 2°58.39 1.8 21 14.2 100670 66
2009-06-08 14:05 51°20.233 2°58.173 0.5 12 14.2 100680 66
2009-06-08 14:06 51°20.127 2°57.956 1.1 6 14.3 100680 66
2009-06-08 14:07 51°20.02 2°57.739 1.5 13 14.4 100670 66
2009-06-08 14:08 51°19.917 2°57.516 2 22 14.4 100670 66
2009-06-08 14:09 51°19.812 2°57.295 2.5 12 14.3 100670 66
2009-06-08 14:10 51°19.707 2°57.072 1.9 17 14.3 100670 66
2009-06-08 14:11 51°19.605 2°56.846 1.7 18 14.2 100670 66
2009-06-08 14:12 51°19.499 2°56.622 1.5 16 14.2 100670 66
2009-06-08 14:13 51°19.396 2°56.395 1.7 6 14.2 100670 65
2009-06-08 14:14 51°19.29 2°56.172 1.4 10 14.2 100670 65
2009-06-08 14:15 51°19.186 2°55.945 1.7 16 14.2 100670 66
2009-06-08 14:16 51°19.082 2°55.718 2.3 14 14.2 100670 65
2009-06-08 14:17 51°18.983 2°55.488 1.7 15 14.2 100670 67
2009-06-08 14:18 51°18.887 2°55.25 2.4 5 14.2 100670 67
2009-06-08 14:19 51°18.791 2°55.012 2.5 7 14.2 100670 66
2009-06-08 14:20 51°18.698 2°54.771 2.2 13 14.2 100670 66
2009-06-08 14:21 51°18.586 2°54.553 0.5 352 14.1 100670 65
2009-06-08 14:22 51°18.442 2°54.393 0.7 303 14.1 100670 66
2009-06-08 14:23 51°18.292 2°54.242 0.7 305 14.2 100670 66
2009-06-08 14:24 51°18.152 2°54.071 0.8 359 14.3 100670 66
2009-06-08 14:25 51°18.016 2°53.892 0.7 353 14.4 100660 65
2009-06-08 14:26 51°17.879 2°53.715 0.8 331 14.5 100660 65
2009-06-08 14:27 51°17.743 2°53.537 0.3 359 14.6 100660 66
2009-06-08 14:28 51°17.608 2°53.355 1 339 14.7 100660 65
2009-06-08 14:29 51°17.469 2°53.182 0.7 303 14.7 100660 65
2009-06-08 14:30 51°17.313 2°53.049 1.4 300 14.8 100660 65
2009-06-08 14:31 51°17.154 2°52.923 2.2 311 14.8 100660 65
2009-06-08 14:32 51°16.985 2°52.832 3.5 302 14.8 100660 65
2009-06-08 14:33 51°16.807 2°52.875 6.7 303 14.8 100650 64
2009-06-08 14:34 51°16.637 2°53.003 6 301 14.7 100640 64
2009-06-08 14:35 51°16.466 2°53.128 7.1 304 14.6 100640 65
2009-06-08 14:36 51°16.294 2°53.252 6.5 302 14.6 100640 65
2009-06-08 14:37 51°16.12 2°53.362 6.4 303 14.6 100640 66
2009-06-08 14:38 51°15.945 2°53.471 6.5 309 14.5 100630 66
2009-06-08 14:39 51°15.768 2°53.581 8.2 310 14.5 100640 66
2009-06-08 14:40 51°15.591 2°53.683 7.5 304 14.5 100640 66
2009-06-08 14:41 51°15.411 2°53.779 5.4 310 14.4 100640 66
2009-06-08 14:42 51°15.228 2°53.855 5.4 303 14.4 100640 66
2009-06-08 14:43 51°15.048 2°53.937 6.1 302 14.4 100640 66
2009-06-08 14:44 51°14.883 2°54.056 8 308 14.4 100640 66
2009-06-08 14:45 51°14.756 2°54.232 8.6 306 14.4 100640 67
2009-06-08 14:46 51°14.643 2°54.41 9.7 306 14.4 100640 64
2009-06-08 14:47 51°14.536 2°54.612 9.4 301 14.3 100640 64
2009-06-08 14:48 51°14.434 2°54.832 10.3 308 14.4 100630 65
2009-06-08 14:49 51°14.342 2°55.059 10.5 304 14.4 100620 64
2009-06-08 14:50 51°14.261 2°55.244 8.8 304 14.4 100630 65
2009-06-08 14:51 51°14.168 2°55.371 6.2 307 14.4 100640 64
2009-06-08 14:52 51°14.049 2°55.462 4.5 304 14.5 100640 65
2009-06-08 14:53 51°13.93 2°55.549 3.8 303 14.4 100640 64
2009-06-08 14:54 51°13.822 2°55.632 3.3 306 14.5 100640 64
2009-06-08 14:55 51°13.745 2°55.736 4.1 304 14.5 100630 63
2009-06-08 14:56 51°13.689 2°55.843 4.1 308 14.6 100630 63
2009-06-08 14:57 51°13.666 2°55.929 3.6 307 14.6 100630 62